createdAt,value
2022-11-04T00:05:00.017Z,3.30
2022-11-04T00:10:01.666Z,6.57
2022-11-04T00:15:23.451Z,7.43
2022-11-04T00:20:44.026Z,2.00
2022-11-04T00:26:05.082Z,1.85
2022-11-04T00:31:26.800Z,2.22
2022-11-04T00:36:28.495Z,1.55
2022-11-04T00:41:30.696Z,1.75
2022-11-04T00:46:34.555Z,2.63
2022-11-04T00:51:36.230Z,3.90
2022-11-04T00:56:38.582Z,2.45
2022-11-04T01:01:40.773Z,1.00
2022-11-04T01:06:42.542Z,2.65
2022-11-04T01:11:44.246Z,1.15
2022-11-04T01:16:46.583Z,2.17
2022-11-04T01:21:51.634Z,1.10
2022-11-04T01:26:53.275Z,2.03
2022-11-04T01:31:54.920Z,1.05
2022-11-04T01:36:57.052Z,1.42
2022-11-04T01:41:58.769Z,1.27
2022-11-04T01:47:00.527Z,2.10
2022-11-04T01:52:09.408Z,1.80
2022-11-04T01:57:16.541Z,0.93
2022-11-04T02:02:18.381Z,1.60
2022-11-04T02:07:21.330Z,2.83
2022-11-04T02:12:41.562Z,5.07
2022-11-04T02:18:18.354Z,9.35
2022-11-04T02:23:46.166Z,1.23
2022-11-04T02:29:25.647Z,0.90
2022-11-04T02:34:43.319Z,1.50
2022-11-04T02:40:01.138Z,0.80
2022-11-04T02:45:30.379Z,1.70
2022-11-04T02:50:54.288Z,0.50
2022-11-04T02:55:58.493Z,0.45
2022-11-04T03:01:02.443Z,2.95
2022-11-04T03:06:06.284Z,0.50
2022-11-04T03:11:17.117Z,0.90
2022-11-04T03:16:28.434Z,1.70
2022-11-04T03:21:34.049Z,3.05
2022-11-04T03:26:44.745Z,0.50
2022-11-04T03:32:05.043Z,2.43
2022-11-04T03:37:06.819Z,2.15
2022-11-04T03:42:20.438Z,0.85
2022-11-04T03:47:25.499Z,2.60
2022-11-04T03:52:27.304Z,4.28
2022-11-04T03:57:55.910Z,1.67
2022-11-04T04:03:16.885Z,1.95
2022-11-04T04:08:37.475Z,1.80
2022-11-04T04:13:44.643Z,4.80
2022-11-04T04:18:58.853Z,4.07
2022-11-04T04:24:24.622Z,2.58
2022-11-04T04:29:29.293Z,0.90
2022-11-04T04:34:33.404Z,1.83
2022-11-04T04:40:02.148Z,3.17
2022-11-04T04:45:06.115Z,5.43
2022-11-04T04:50:09.122Z,3.88
2022-11-04T04:55:12.183Z,2.85
2022-11-04T05:00:19.884Z,4.63
2022-11-04T05:05:22.278Z,4.97
2022-11-04T05:10:23.916Z,4.35
2022-11-04T05:15:26.928Z,2.53
2022-11-04T05:20:34.153Z,1.52
2022-11-04T05:25:35.926Z,3.83
2022-11-04T05:30:38.195Z,0.98
2022-11-04T05:35:40.409Z,6.80
2022-11-04T05:40:42.135Z,2.38
2022-11-04T05:45:44.193Z,2.65
2022-11-04T05:50:46.347Z,2.90
2022-11-04T05:55:48.449Z,4.13
2022-11-04T06:00:50.492Z,3.78
2022-11-04T06:05:52.256Z,5.18
2022-11-04T06:10:54.399Z,0.95
2022-11-04T06:15:56.480Z,2.83
2022-11-04T06:21:22.472Z,7.55
2022-11-04T06:26:28.222Z,2.70
2022-11-04T06:31:30.945Z,5.18
2022-11-04T06:36:33.030Z,3.25
2022-11-04T06:41:35.228Z,3.00
2022-11-04T06:46:39.623Z,4.70
2022-11-04T06:51:41.571Z,4.53
2022-11-04T06:56:43.640Z,3.47
2022-11-04T07:01:46.361Z,3.30
2022-11-04T07:06:48.165Z,2.78
2022-11-04T07:11:49.978Z,4.03
2022-11-04T07:16:52.018Z,2.72
2022-11-04T07:21:53.713Z,9.75
2022-11-04T07:26:56.246Z,9.98
2022-11-04T07:31:57.942Z,21.95
2022-11-04T07:36:59.672Z,41.60
2022-11-04T07:42:01.425Z,26.73
2022-11-04T07:47:03.195Z,11.20
2022-11-04T07:52:05.112Z,40.67
2022-11-04T07:57:06.828Z,9.55
2022-11-04T08:02:10.849Z,8.60
2022-11-04T08:07:12.577Z,6.40
2022-11-04T08:12:14.362Z,5.50
2022-11-04T08:17:16.482Z,12.98
2022-11-04T08:22:18.504Z,18.85
2022-11-04T08:27:20.245Z,19.75
2022-11-04T08:32:22.031Z,20.95
2022-11-04T08:37:23.822Z,44.20
2022-11-04T08:42:26.210Z,49.25
2022-11-04T08:47:27.978Z,37.50
2022-11-04T08:52:29.696Z,24.77
2022-11-04T08:57:32.084Z,19.45
2022-11-04T09:02:33.778Z,25.83
2022-11-04T09:07:37.470Z,40.63
2022-11-04T09:12:39.701Z,52.10
2022-11-04T09:17:44.248Z,65.35
2022-11-04T09:22:46.372Z,47.95
2022-11-04T09:27:48.135Z,22.13
2022-11-04T09:32:52.739Z,21.55
2022-11-04T09:37:55.142Z,13.50
2022-11-04T09:43:02.640Z,16.15
2022-11-04T09:48:08.809Z,18.58
2022-11-04T09:53:47.463Z,9.73
2022-11-04T09:58:50.452Z,8.60
2022-11-04T10:04:10.919Z,8.43
2022-11-04T10:09:27.216Z,1.38
2022-11-04T10:14:54.204Z,5.38
2022-11-04T10:20:52.341Z,1.95
2022-11-04T10:26:03.415Z,2.15
2022-11-04T10:31:05.554Z,5.35
2022-11-04T10:36:09.593Z,4.88
2022-11-04T10:41:29.826Z,1.77
2022-11-04T10:46:44.521Z,3.28
2022-11-04T10:51:46.226Z,3.15
2022-11-04T10:56:51.569Z,1.77
2022-11-04T11:02:06.169Z,1.00
2022-11-04T11:07:13.343Z,2.92
2022-11-04T11:12:44.635Z,2.75
2022-11-04T11:17:39.430Z,1.67
2022-11-04T11:22:43.582Z,1.85
2022-11-04T11:27:49.878Z,3.35
2022-11-04T11:33:17.677Z,1.55
2022-11-04T11:38:23.761Z,1.83
2022-11-04T11:43:29.800Z,2.17
2022-11-04T11:48:41.550Z,1.85
2022-11-04T11:54:16.161Z,2.30
2022-11-04T12:10:50.310Z,8.68
2022-11-04T12:16:06.466Z,1.80
2022-11-04T12:21:24.115Z,2.40
2022-11-04T12:26:50.463Z,3.05
2022-11-04T12:32:01.234Z,2.75
2022-11-04T12:37:44.130Z,3.83
2022-11-04T12:43:04.564Z,5.87
2022-11-04T12:48:33.993Z,4.15
2022-11-04T12:53:53.753Z,2.88
2022-11-04T12:59:22.909Z,6.03
2022-11-04T13:04:34.174Z,4.03
2022-11-04T13:09:45.219Z,2.38
2022-11-04T13:14:48.604Z,5.10
2022-11-04T13:19:53.640Z,8.38
2022-11-04T13:25:06.458Z,8.23
2022-11-04T13:30:19.486Z,3.58
2022-11-04T13:35:49.075Z,6.72
2022-11-04T13:40:59.653Z,8.20
2022-11-04T13:46:01.717Z,5.20
2022-11-04T13:51:10.432Z,5.88
2022-11-04T13:56:37.104Z,4.20
2022-11-04T14:01:38.808Z,5.15
2022-11-04T14:07:03.666Z,6.22
2022-11-04T14:12:11.634Z,9.77
2022-11-04T14:17:35.242Z,1.48
2022-11-04T14:22:50.972Z,15.43
2022-11-04T14:28:09.127Z,11.60
2022-11-04T14:33:51.478Z,9.77
2022-11-04T14:39:21.456Z,6.43
2022-11-04T14:44:41.973Z,4.68
2022-11-04T14:49:52.794Z,7.13
2022-11-04T14:55:05.565Z,5.72
2022-11-04T15:00:36.947Z,5.05
2022-11-04T15:05:40.539Z,3.35
2022-11-04T15:10:42.221Z,8.73
2022-11-04T15:15:45.336Z,8.65
2022-11-04T15:20:52.445Z,4.75
2022-11-04T15:25:55.702Z,6.22
2022-11-04T15:31:09.065Z,5.05
2022-11-04T15:36:16.098Z,3.97
2022-11-04T15:41:40.592Z,3.92
2022-11-04T15:46:48.942Z,10.35
2022-11-04T15:51:54.111Z,14.80
2022-11-04T15:56:59.293Z,16.52
2022-11-04T16:02:03.792Z,14.95
2022-11-04T16:07:11.701Z,11.43
2022-11-04T16:12:27.014Z,9.73
2022-11-04T16:17:42.978Z,9.32
2022-11-04T16:22:45.282Z,10.70
2022-11-04T16:27:47.617Z,6.03
2022-11-04T16:32:52.813Z,7.72
2022-11-04T16:37:58.713Z,10.35
2022-11-04T16:43:00.414Z,11.02
2022-11-04T16:48:02.515Z,8.85
2022-11-04T16:53:04.208Z,6.35
2022-11-04T16:58:06.187Z,9.73
2022-11-04T17:03:22.805Z,10.20
2022-11-04T17:08:25.464Z,20.95
2022-11-04T17:13:30.831Z,27.08
2022-11-04T17:18:35.295Z,27.63
2022-11-04T17:23:37.500Z,10.00
2022-11-04T17:28:39.695Z,9.60
2022-11-04T17:33:41.783Z,25.15
2022-11-04T17:38:43.818Z,11.65
2022-11-04T17:44:01.105Z,12.20
2022-11-04T17:49:05.464Z,12.40
2022-11-04T17:54:07.371Z,7.35
2022-11-04T17:59:10.809Z,13.93
2022-11-04T18:04:14.702Z,8.02
2022-11-04T18:09:17.988Z,15.32
2022-11-04T18:14:19.698Z,38.50
2022-11-04T18:19:23.365Z,13.07
2022-11-04T18:24:25.152Z,9.43
2022-11-04T18:29:27.506Z,7.80
2022-11-04T18:34:29.761Z,14.73
2022-11-04T18:39:31.827Z,12.98
2022-11-04T18:44:33.484Z,7.03
2022-11-04T18:49:35.686Z,7.63
2022-11-04T18:54:37.361Z,11.15
2022-11-04T18:59:39.101Z,12.20
2022-11-04T19:04:40.837Z,22.70
2022-11-04T19:09:47.807Z,17.02
2022-11-04T19:14:49.853Z,15.98
2022-11-04T19:19:51.608Z,15.25
2022-11-04T19:24:53.671Z,12.45
2022-11-04T19:29:55.422Z,17.70
2022-11-04T19:34:57.189Z,21.08
2022-11-04T19:39:58.965Z,17.17
2022-11-04T19:45:00.715Z,19.50
2022-11-04T19:50:03.070Z,25.92
2022-11-04T19:55:05.050Z,21.83
2022-11-04T20:00:07.846Z,24.38
2022-11-04T20:05:10.317Z,21.92
2022-11-04T20:10:12.033Z,24.08
2022-11-04T20:15:13.718Z,14.73
2022-11-04T20:20:15.450Z,15.63
2022-11-04T20:25:17.162Z,15.10
2022-11-04T20:30:20.184Z,10.25
2022-11-04T20:35:21.907Z,20.38
2022-11-04T20:40:23.914Z,82.40
2022-11-04T20:45:25.621Z,25.92
2022-11-04T20:50:27.371Z,21.80
2022-11-04T20:55:29.245Z,25.50
2022-11-04T21:00:31.174Z,28.48
2022-11-04T21:05:34.571Z,32.13
2022-11-04T21:10:37.538Z,30.33
2022-11-04T21:15:42.190Z,28.23
2022-11-04T21:20:44.165Z,18.83
2022-11-04T21:25:50.223Z,16.92
2022-11-04T21:30:53.652Z,41.85
2022-11-04T21:35:55.280Z,35.83
2022-11-04T21:41:05.128Z,43.60
2022-11-04T21:46:09.444Z,22.45
2022-11-04T21:51:19.680Z,24.33
2022-11-04T21:56:26.936Z,29.25
2022-11-04T22:01:30.291Z,29.73
2022-11-04T22:06:35.203Z,36.00
2022-11-04T22:11:39.336Z,16.00
2022-11-04T22:16:41.134Z,11.38
2022-11-04T22:21:45.052Z,7.82
2022-11-04T22:26:47.836Z,10.15
2022-11-04T22:31:49.647Z,7.85
2022-11-04T22:36:51.500Z,7.60
2022-11-04T22:41:53.157Z,7.32
2022-11-04T22:46:55.027Z,34.28
2022-11-04T22:51:56.733Z,11.23
2022-11-04T22:56:58.385Z,10.65
2022-11-04T23:02:00.162Z,12.32
2022-11-04T23:07:02.008Z,11.60
2022-11-04T23:12:22.224Z,8.93
2022-11-04T23:17:42.858Z,6.85
2022-11-04T23:23:03.024Z,5.40
2022-11-04T23:28:23.356Z,10.25
2022-11-04T23:33:45.233Z,7.10
2022-11-04T23:38:50.292Z,6.63
2022-11-04T23:43:52.293Z,10.35
2022-11-04T23:49:12.528Z,7.75
2022-11-04T23:54:33.274Z,9.27
2022-11-04T23:59:53.530Z,5.47
